createdAt,value
2019-04-28T00:00:45.434Z,10.50
2019-04-28T00:03:13.955Z,10.50
2019-04-28T00:05:42.458Z,10.40
2019-04-28T00:08:11.068Z,10.40
2019-04-28T00:10:39.564Z,10.40
2019-04-28T00:13:08.272Z,10.40
2019-04-28T00:15:36.940Z,10.40
2019-04-28T00:18:05.368Z,10.50
2019-04-28T00:20:51.954Z,10.50
2019-04-28T00:23:24.848Z,10.40
2019-04-28T00:26:11.080Z,10.50
2019-04-28T00:28:41.649Z,10.40
2019-04-28T00:31:11.324Z,10.40
2019-04-28T00:33:41.342Z,10.40
2019-04-28T00:36:11.543Z,10.40
2019-04-28T00:38:41.527Z,10.40
2019-04-28T00:41:30.924Z,10.40
2019-04-28T00:43:59.555Z,10.40
2019-04-28T00:46:35.958Z,10.40
2019-04-28T00:49:04.642Z,10.40
2019-04-28T00:51:33.092Z,10.40
2019-04-28T00:54:01.597Z,10.40
2019-04-28T00:56:31.717Z,10.30
2019-04-28T00:59:01.651Z,10.40
2019-04-28T01:01:31.909Z,10.30
2019-04-28T01:04:02.069Z,10.30
2019-04-28T01:06:32.145Z,10.30
2019-04-28T01:09:01.406Z,10.30
2019-04-28T01:11:31.668Z,10.30
2019-04-28T01:14:01.714Z,10.30
2019-04-28T01:16:31.909Z,10.30
2019-04-28T01:19:02.000Z,10.30
2019-04-28T01:21:37.828Z,10.30
2019-04-28T01:24:06.270Z,10.30
2019-04-28T01:26:34.708Z,10.30
2019-04-28T01:29:03.152Z,10.40
2019-04-28T01:31:36.363Z,10.40
2019-04-28T01:34:23.970Z,10.40
2019-04-28T01:36:52.443Z,10.30
2019-04-28T01:39:21.040Z,10.30
2019-04-28T01:41:49.680Z,10.30
2019-04-28T01:44:19.832Z,10.30
2019-04-28T01:47:07.768Z,10.20
2019-04-28T01:49:36.218Z,10.20
2019-04-28T01:52:04.892Z,10.20
2019-04-28T01:54:33.343Z,10.20
2019-04-28T01:57:01.844Z,10.10
2019-04-28T01:59:30.453Z,10.20
2019-04-28T02:02:00.038Z,10.20
2019-04-28T02:04:30.072Z,10.10
2019-04-28T02:06:59.812Z,10.10
2019-04-28T02:09:29.605Z,10.10
2019-04-28T02:12:00.822Z,10.10
2019-04-28T02:14:30.858Z,10.10
2019-04-28T02:17:00.540Z,10.10
2019-04-28T02:19:30.599Z,10.10
2019-04-28T02:22:03.389Z,10.10
2019-04-28T02:24:33.487Z,10.10
2019-04-28T02:27:02.132Z,10.10
2019-04-28T02:29:31.987Z,10.10
2019-04-28T02:32:02.229Z,10.10
2019-04-28T02:34:31.249Z,10.10
2019-04-28T02:37:01.576Z,10.20
2019-04-28T02:39:31.182Z,10.20
2019-04-28T02:42:01.492Z,10.20
2019-04-28T02:44:33.473Z,10.20
2019-04-28T02:47:01.138Z,10.20
2019-04-28T02:49:34.358Z,10.20
2019-04-28T02:52:13.591Z,10.20
2019-04-28T02:54:42.517Z,10.20
2019-04-28T02:57:11.171Z,10.10
2019-04-28T02:59:40.892Z,10.10
2019-04-28T03:02:10.708Z,10.20
2019-04-28T03:05:00.294Z,10.20
2019-04-28T03:07:31.110Z,10.20
2019-04-28T03:10:03.249Z,10.20
2019-04-28T03:12:31.411Z,10.10
2019-04-28T03:15:00.657Z,10.10
2019-04-28T03:17:30.928Z,10.10
2019-04-28T03:20:00.961Z,10.10
2019-04-28T03:22:31.218Z,10.10
2019-04-28T03:25:01.855Z,10.00
2019-04-28T03:27:50.931Z,10.00
2019-04-28T03:30:36.713Z,10.00
2019-04-28T03:33:13.368Z,10.00
2019-04-28T03:35:37.125Z,10.10
2019-04-28T03:38:05.675Z,10.00
2019-04-28T03:40:34.133Z,10.00
2019-04-28T03:43:03.280Z,10.00
2019-04-28T03:45:33.684Z,10.00
2019-04-28T03:48:21.463Z,9.90
2019-04-28T03:50:51.373Z,10.00
2019-04-28T03:53:20.703Z,9.90
2019-04-28T03:55:51.364Z,9.90
2019-04-28T03:58:23.801Z,9.90
2019-04-28T04:00:50.648Z,9.90
2019-04-28T04:03:20.940Z,9.90
2019-04-28T04:05:50.778Z,9.90
2019-04-28T04:08:20.931Z,9.90
2019-04-28T04:11:07.394Z,9.90
2019-04-28T04:13:52.651Z,9.90
2019-04-28T04:16:40.545Z,9.90
2019-04-28T04:19:14.069Z,9.80
2019-04-28T04:21:42.591Z,9.80
2019-04-28T04:24:11.026Z,9.80
2019-04-28T04:26:40.965Z,9.90
2019-04-28T04:29:10.215Z,9.80
2019-04-28T04:31:41.095Z,9.80
2019-04-28T04:34:10.689Z,9.80
2019-04-28T04:37:00.691Z,9.80
2019-04-28T04:39:30.349Z,9.80
2019-04-28T04:42:00.667Z,9.90
2019-04-28T04:44:30.988Z,9.90
2019-04-28T04:47:01.019Z,9.90
2019-04-28T04:49:50.458Z,10.00
2019-04-28T04:52:20.332Z,10.00
2019-04-28T04:54:51.064Z,10.00
2019-04-28T04:57:20.757Z,10.00
2019-04-28T04:59:49.990Z,10.00
2019-04-28T05:02:33.161Z,10.00
2019-04-28T05:05:22.783Z,10.00
2019-04-28T05:07:51.224Z,10.00
2019-04-28T05:10:20.419Z,10.00
2019-04-28T05:12:49.946Z,10.00
2019-04-28T05:15:20.344Z,10.00
2019-04-28T05:17:50.151Z,10.00
2019-04-28T05:20:20.154Z,10.00
2019-04-28T05:22:52.875Z,10.00
2019-04-28T05:25:24.617Z,10.00
2019-04-28T05:27:54.492Z,10.00
2019-04-28T05:30:23.299Z,10.00
2019-04-28T05:32:56.139Z,10.00
2019-04-28T05:35:25.114Z,10.10
2019-04-28T05:37:52.067Z,10.10
2019-04-28T05:40:20.646Z,10.10
2019-04-28T05:42:58.157Z,10.10
2019-04-28T05:45:28.624Z,10.10
2019-04-28T05:47:59.427Z,10.10
2019-04-28T05:50:32.643Z,10.20
2019-04-28T05:53:02.726Z,10.20
2019-04-28T05:55:32.955Z,10.30
2019-04-28T05:58:21.185Z,10.30
2019-04-28T06:01:07.443Z,10.30
2019-04-28T06:03:36.351Z,10.30
2019-04-28T06:06:04.944Z,10.40
2019-04-28T06:08:50.651Z,10.40
2019-04-28T06:11:31.115Z,10.40
2019-04-28T06:14:00.594Z,10.40
2019-04-28T06:16:30.468Z,10.50
2019-04-28T06:19:00.069Z,10.50
2019-04-28T06:21:28.956Z,10.50
2019-04-28T06:24:16.732Z,10.50
2019-04-28T06:27:04.589Z,10.60
2019-04-28T06:29:33.028Z,10.60
2019-04-28T06:32:01.482Z,10.50
2019-04-28T06:34:29.924Z,10.50
2019-04-28T06:36:58.386Z,10.50
2019-04-28T06:39:26.822Z,10.60
2019-04-28T06:41:55.355Z,10.60
2019-04-28T06:44:23.793Z,10.70
2019-04-28T06:46:52.256Z,10.80
2019-04-28T06:49:20.763Z,10.80
2019-04-28T06:51:49.295Z,10.90
2019-04-28T06:54:17.732Z,11.00
2019-04-28T06:56:46.175Z,11.00
2019-04-28T06:59:33.951Z,11.00
2019-04-28T07:02:02.423Z,11.00
2019-04-28T07:04:30.858Z,11.20
2019-04-28T07:06:59.319Z,11.30
2019-04-28T07:09:27.767Z,11.20
2019-04-28T07:11:56.284Z,11.20
2019-04-28T07:14:24.727Z,11.20
2019-04-28T07:16:53.194Z,11.30
2019-04-28T07:19:21.647Z,11.20
2019-04-28T07:21:54.151Z,11.20
2019-04-28T07:24:22.744Z,11.10
2019-04-28T07:26:51.192Z,11.10
2019-04-28T07:29:19.709Z,11.20
2019-04-28T07:31:48.231Z,11.20
2019-04-28T07:34:16.838Z,11.30
2019-04-28T07:36:45.287Z,11.30
2019-04-28T07:39:13.729Z,11.50
2019-04-28T07:41:42.192Z,11.60
2019-04-28T07:44:29.971Z,11.70
2019-04-28T07:46:58.436Z,11.90
2019-04-28T07:49:26.871Z,12.10
2019-04-28T07:51:57.020Z,12.10
2019-04-28T07:54:26.042Z,12.20
2019-04-28T07:56:54.543Z,12.20
2019-04-28T07:59:22.991Z,12.30
2019-04-28T08:01:51.435Z,12.20
2019-04-28T08:04:19.885Z,12.10
2019-04-28T08:07:07.655Z,12.00
2019-04-28T08:09:36.314Z,11.90
2019-04-28T08:12:04.888Z,11.90
2019-04-28T08:14:33.350Z,11.90
2019-04-28T08:17:01.796Z,11.80
2019-04-28T08:19:30.316Z,12.00
2019-04-28T08:21:58.758Z,12.20
2019-04-28T08:24:27.275Z,12.40
2019-04-28T08:26:55.716Z,12.60
2019-04-28T08:29:24.167Z,12.90
2019-04-28T08:31:56.704Z,13.20
2019-04-28T08:34:25.187Z,13.40
2019-04-28T08:36:53.695Z,13.60
2019-04-28T08:39:25.042Z,13.80
2019-04-28T08:41:52.397Z,13.80
2019-04-28T08:44:20.837Z,13.90
2019-04-28T08:47:08.648Z,14.10
2019-04-28T08:49:37.217Z,14.00
2019-04-28T08:52:06.719Z,13.70
2019-04-28T08:54:35.161Z,13.70
2019-04-28T08:57:03.720Z,13.80
2019-04-28T08:59:33.349Z,13.80
2019-04-28T09:02:01.795Z,13.70
2019-04-28T09:04:30.227Z,13.70
2019-04-28T09:06:58.680Z,13.80
2019-04-28T09:09:27.279Z,13.80
2019-04-28T09:11:55.734Z,13.70
2019-04-28T09:14:24.171Z,13.70
2019-04-28T09:17:11.959Z,13.50
2019-04-28T09:19:42.416Z,13.40
2019-04-28T09:22:10.656Z,13.40
2019-04-28T09:24:39.109Z,13.40
2019-04-28T09:27:07.619Z,13.30
2019-04-28T09:29:36.060Z,13.20
2019-04-28T09:32:04.574Z,13.10
2019-04-28T09:34:33.019Z,13.00
2019-04-28T09:37:01.463Z,13.00
2019-04-28T09:39:47.783Z,13.10
2019-04-28T09:42:18.110Z,13.30
2019-04-28T09:44:46.559Z,13.50
2019-04-28T09:47:14.996Z,13.30
2019-04-28T09:49:43.512Z,13.30
2019-04-28T09:52:12.063Z,13.50
2019-04-28T09:54:40.516Z,13.70
2019-04-28T09:57:08.959Z,13.90
2019-04-28T09:59:37.412Z,14.20
2019-04-28T10:02:05.919Z,14.00
2019-04-28T10:04:41.362Z,14.20
2019-04-28T10:07:04.603Z,14.50
2019-04-28T10:09:39.019Z,14.50
2019-04-28T10:12:07.543Z,14.50
2019-04-28T10:14:36.124Z,14.60
2019-04-28T10:17:04.733Z,14.70
2019-04-28T10:19:33.159Z,14.70
2019-04-28T10:22:01.619Z,14.40
2019-04-28T10:24:30.069Z,14.50
2019-04-28T10:26:58.662Z,14.30
2019-04-28T10:29:27.087Z,14.20
2019-04-28T10:31:55.613Z,14.20
2019-04-28T10:34:24.153Z,14.10
2019-04-28T10:36:52.907Z,14.10
2019-04-28T10:39:23.028Z,14.20
2019-04-28T10:41:51.748Z,14.20
2019-04-28T10:44:20.721Z,14.30
2019-04-28T10:46:49.232Z,14.60
2019-04-28T10:49:21.175Z,14.60
2019-04-28T10:51:59.106Z,14.60
2019-04-28T10:54:25.531Z,14.90
2019-04-28T10:56:54.208Z,15.10
2019-04-28T10:59:22.732Z,15.30
2019-04-28T11:01:59.979Z,15.30
2019-04-28T11:04:39.103Z,15.10
2019-04-28T11:07:09.993Z,15.20
2019-04-28T11:09:40.255Z,15.50
2019-04-28T11:12:10.567Z,15.50
2019-04-28T11:14:41.297Z,15.50
2019-04-28T11:17:12.635Z,15.20
2019-04-28T11:19:41.353Z,15.10
2019-04-28T11:22:09.861Z,15.00
2019-04-28T11:24:38.397Z,15.00
2019-04-28T11:27:26.240Z,15.00
2019-04-28T11:29:54.741Z,15.00
2019-04-28T11:32:23.278Z,15.00
2019-04-28T11:35:20.918Z,14.90
2019-04-28T11:37:41.178Z,15.00
2019-04-28T11:40:10.852Z,14.80
2019-04-28T11:42:39.415Z,14.80
2019-04-28T11:45:08.522Z,14.70
2019-04-28T11:47:36.959Z,14.70
2019-04-28T11:50:06.952Z,14.60
2019-04-28T11:52:35.397Z,14.60
2019-04-28T11:55:05.587Z,14.60
2019-04-28T11:57:34.088Z,14.60
2019-04-28T12:00:04.395Z,14.90
2019-04-28T12:02:32.851Z,15.00
2019-04-28T12:05:01.357Z,15.00
2019-04-28T12:07:29.813Z,15.00
2019-04-28T12:10:09.123Z,15.20
2019-04-28T12:12:39.291Z,15.20
2019-04-28T12:15:35.032Z,15.00
2019-04-28T12:18:13.176Z,15.10
2019-04-28T12:20:41.691Z,15.30
2019-04-28T12:23:11.120Z,15.50
2019-04-28T12:25:39.556Z,16.00
2019-04-28T12:28:08.081Z,16.20
2019-04-28T12:30:43.261Z,16.30
2019-04-28T12:33:11.742Z,16.40
2019-04-28T12:35:47.677Z,16.30
2019-04-28T12:38:11.329Z,16.30
2019-04-28T12:40:46.559Z,16.20
2019-04-28T12:43:15.059Z,15.80
2019-04-28T12:45:43.565Z,15.70
2019-04-28T12:48:12.098Z,15.80
2019-04-28T12:50:45.205Z,15.70
2019-04-28T12:53:13.659Z,15.70
2019-04-28T12:56:01.448Z,15.70
2019-04-28T12:58:29.904Z,15.40
2019-04-28T13:01:16.465Z,15.00
2019-04-28T13:03:49.135Z,14.70
2019-04-28T13:06:22.284Z,14.60
2019-04-28T13:08:53.648Z,14.40
2019-04-28T13:11:22.384Z,14.30
2019-04-28T13:13:50.816Z,14.20
2019-04-28T13:16:19.287Z,14.10
2019-04-28T13:18:47.745Z,13.90
2019-04-28T13:21:16.290Z,13.80
2019-04-28T13:23:44.774Z,13.70
2019-04-28T13:26:13.245Z,13.60
2019-04-28T13:28:41.767Z,13.50
2019-04-28T13:31:11.294Z,13.40
2019-04-28T13:33:55.296Z,13.40
2019-04-28T13:36:15.025Z,13.30
2019-04-28T13:38:42.278Z,13.20
2019-04-28T13:41:10.810Z,13.00
2019-04-28T13:43:39.244Z,12.80
2019-04-28T13:46:07.719Z,12.60
2019-04-28T13:48:36.296Z,12.60
2019-04-28T13:51:05.712Z,12.50
2019-04-28T13:53:34.960Z,12.50
2019-04-28T13:56:03.507Z,12.50
2019-04-28T13:58:54.460Z,12.50
2019-04-28T14:01:39.272Z,12.50
2019-04-28T14:04:14.885Z,12.70
2019-04-28T14:06:45.117Z,12.60
2019-04-28T14:09:15.194Z,12.70
2019-04-28T14:11:43.731Z,12.70
2019-04-28T14:14:12.183Z,12.70
2019-04-28T14:16:40.699Z,12.70
2019-04-28T14:19:15.401Z,12.60
2019-04-28T14:21:46.582Z,12.50
2019-04-28T14:24:15.022Z,12.50
2019-04-28T14:26:43.515Z,12.50
2019-04-28T14:29:12.160Z,12.60
2019-04-28T14:31:40.640Z,12.50
2019-04-28T14:34:09.184Z,12.60
2019-04-28T14:36:42.292Z,12.60
2019-04-28T14:39:08.437Z,12.80
2019-04-28T14:41:37.008Z,12.70
2019-04-28T14:44:05.845Z,12.80
2019-04-28T14:46:34.283Z,12.80
2019-04-28T14:49:02.900Z,12.80
2019-04-28T14:51:31.395Z,13.00
2019-04-28T14:53:59.838Z,13.10
2019-04-28T14:56:28.322Z,13.20
2019-04-28T14:58:56.778Z,13.20
2019-04-28T15:01:26.980Z,13.30
2019-04-28T15:03:59.756Z,13.40
2019-04-28T15:06:30.225Z,13.50
2019-04-28T15:09:00.393Z,13.50
2019-04-28T15:11:36.555Z,13.40
2019-04-28T15:14:05.070Z,13.40
2019-04-28T15:16:33.656Z,13.40
2019-04-28T15:19:02.093Z,13.40
2019-04-28T15:21:30.613Z,13.40
2019-04-28T15:23:59.327Z,13.30
2019-04-28T15:26:27.794Z,13.30
2019-04-28T15:28:56.288Z,13.20
2019-04-28T15:31:24.749Z,13.10
2019-04-28T15:33:53.221Z,13.00
2019-04-28T15:36:21.723Z,12.90
2019-04-28T15:38:50.175Z,12.70
2019-04-28T15:41:21.966Z,12.80
2019-04-28T15:43:48.827Z,12.70
2019-04-28T15:46:17.448Z,12.80
2019-04-28T15:48:45.954Z,12.70
2019-04-28T15:51:14.473Z,12.60
2019-04-28T15:53:44.552Z,12.70
2019-04-28T15:56:17.351Z,12.70
2019-04-28T15:58:45.797Z,12.70
2019-04-28T16:01:14.317Z,12.70
2019-04-28T16:03:42.751Z,12.70
2019-04-28T16:06:11.212Z,12.70
2019-04-28T16:08:39.643Z,12.70
2019-04-28T16:11:08.226Z,12.80
2019-04-28T16:13:36.886Z,12.80
2019-04-28T16:16:05.461Z,12.70
2019-04-28T16:18:33.928Z,12.70
2019-04-28T16:21:02.370Z,12.60
2019-04-28T16:23:30.864Z,12.60
2019-04-28T16:25:59.323Z,12.60
2019-04-28T16:28:27.852Z,12.70
2019-04-28T16:30:56.360Z,12.80
2019-04-28T16:33:24.880Z,12.90
2019-04-28T16:35:53.389Z,12.90
2019-04-28T16:38:21.862Z,13.10
2019-04-28T16:40:51.413Z,13.10
2019-04-28T16:43:20.655Z,13.10
2019-04-28T16:45:49.087Z,13.20
2019-04-28T16:48:17.559Z,13.20
2019-04-28T16:50:45.999Z,13.10
2019-04-28T16:53:14.452Z,13.00
2019-04-28T16:55:47.352Z,12.90
2019-04-28T16:58:32.893Z,12.90
2019-04-28T17:01:08.360Z,12.80
2019-04-28T17:03:37.869Z,12.70
2019-04-28T17:06:06.319Z,12.70
2019-04-28T17:08:36.787Z,12.70
2019-04-28T17:11:05.231Z,12.70
2019-04-28T17:13:33.736Z,12.70
2019-04-28T17:16:03.167Z,12.70
2019-04-28T17:18:31.689Z,12.60
2019-04-28T17:21:00.137Z,12.60
2019-04-28T17:23:28.685Z,12.60
2019-04-28T17:25:57.139Z,12.60
2019-04-28T17:28:25.586Z,12.50
2019-04-28T17:30:54.174Z,12.50
2019-04-28T17:33:22.691Z,12.40
2019-04-28T17:35:51.262Z,12.40
2019-04-28T17:38:19.711Z,12.40
2019-04-28T17:40:48.432Z,12.40
2019-04-28T17:43:17.024Z,12.40
2019-04-28T17:45:45.543Z,12.30
2019-04-28T17:48:15.887Z,12.30
2019-04-28T17:50:45.395Z,12.30
2019-04-28T17:53:14.055Z,12.30
2019-04-28T17:55:42.566Z,12.20
2019-04-28T17:58:11.004Z,12.20
2019-04-28T18:00:43.896Z,12.10
2019-04-28T18:03:14.005Z,12.10
2019-04-28T18:05:50.163Z,12.00
2019-04-28T18:08:21.253Z,12.00
2019-04-28T18:10:49.124Z,12.00
2019-04-28T18:13:17.547Z,11.90
2019-04-28T18:15:47.875Z,11.90
2019-04-28T18:18:17.959Z,11.90
2019-04-28T18:20:46.492Z,11.80
2019-04-28T18:23:15.007Z,11.80
2019-04-28T18:26:02.883Z,11.70
2019-04-28T18:28:31.319Z,11.70
2019-04-28T18:31:11.828Z,11.70
2019-04-28T18:33:48.160Z,11.70
2019-04-28T18:36:24.631Z,11.70
2019-04-28T18:39:06.691Z,11.70
2019-04-28T18:41:51.840Z,11.70
2019-04-28T18:44:21.847Z,11.80
2019-04-28T18:46:50.390Z,11.70
2019-04-28T18:49:18.861Z,11.70
2019-04-28T18:51:47.389Z,11.70
2019-04-28T18:54:15.865Z,11.70
2019-04-28T18:56:44.357Z,11.60
2019-04-28T18:59:12.907Z,11.50
2019-04-28T19:01:42.973Z,11.50
2019-04-28T19:04:11.477Z,11.50
2019-04-28T19:06:40.066Z,11.50
2019-04-28T19:09:25.616Z,11.50
2019-04-28T19:12:12.142Z,11.50
2019-04-28T19:15:04.447Z,11.50
2019-04-28T19:17:38.448Z,11.30
2019-04-28T19:20:07.149Z,11.20
2019-04-28T19:22:45.959Z,11.20
2019-04-28T19:25:14.720Z,11.10
2019-04-28T19:27:43.307Z,11.10
2019-04-28T19:30:13.360Z,11.00
2019-04-28T19:32:41.883Z,11.00
2019-04-28T19:35:10.673Z,10.90
2019-04-28T19:37:39.116Z,10.90
2019-04-28T19:40:08.093Z,10.90
2019-04-28T19:42:37.602Z,11.00
2019-04-28T19:45:07.923Z,11.00
2019-04-28T19:47:36.456Z,11.00
2019-04-28T19:50:06.747Z,10.90
2019-04-28T19:52:35.244Z,10.80
2019-04-28T19:55:10.593Z,10.80
2019-04-28T19:57:40.667Z,10.80
2019-04-28T20:00:11.033Z,10.70
2019-04-28T20:02:39.480Z,10.70
2019-04-28T20:05:08.003Z,10.60
2019-04-28T20:07:36.435Z,10.60
2019-04-28T20:10:06.427Z,10.60
2019-04-28T20:12:54.213Z,10.50
2019-04-28T20:15:22.664Z,10.50
2019-04-28T20:17:51.102Z,10.50
2019-04-28T20:20:19.553Z,10.50
2019-04-28T20:22:49.470Z,10.50
2019-04-28T20:25:18.105Z,10.40
2019-04-28T20:27:46.550Z,10.40
2019-04-28T20:30:15.548Z,10.40
2019-04-28T20:32:45.880Z,10.40
2019-04-28T20:35:16.788Z,10.40
2019-04-28T20:37:47.323Z,10.40
2019-04-28T20:40:29.435Z,10.30
2019-04-28T20:43:08.583Z,10.30
2019-04-28T20:45:37.102Z,10.30
2019-04-28T20:48:05.583Z,10.30
2019-04-28T20:50:34.011Z,10.20
2019-04-28T20:53:02.454Z,10.20
2019-04-28T20:55:31.008Z,10.20
2019-04-28T20:57:59.449Z,10.10
2019-04-28T21:00:27.916Z,10.10
2019-04-28T21:02:57.394Z,10.00
2019-04-28T21:05:25.921Z,10.00
2019-04-28T21:07:54.437Z,9.90
2019-04-28T21:10:22.878Z,9.90
2019-04-28T21:12:51.324Z,9.90
2019-04-28T21:15:19.775Z,9.90
2019-04-28T21:17:48.224Z,9.90
2019-04-28T21:20:16.724Z,9.90
2019-04-28T21:22:45.190Z,9.90
2019-04-28T21:25:14.164Z,9.80
2019-04-28T21:27:42.613Z,9.80
2019-04-28T21:30:11.575Z,9.80
2019-04-28T21:32:40.027Z,9.80
2019-04-28T21:35:09.011Z,9.70
2019-04-28T21:37:37.451Z,9.70
2019-04-28T21:40:07.879Z,9.70
2019-04-28T21:42:54.699Z,9.70
2019-04-28T21:45:25.748Z,9.70
2019-04-28T21:47:54.206Z,9.70
2019-04-28T21:50:22.654Z,9.70
2019-04-28T21:52:51.160Z,9.70
2019-04-28T21:55:19.614Z,9.60
2019-04-28T21:57:48.044Z,9.60
2019-04-28T22:00:21.325Z,9.60
2019-04-28T22:02:49.755Z,9.50
2019-04-28T22:05:29.892Z,9.50
2019-04-28T22:07:48.371Z,9.50
2019-04-28T22:10:16.834Z,9.50
2019-04-28T22:12:45.260Z,9.50
2019-04-28T22:15:13.709Z,9.50
2019-04-28T22:17:43.465Z,9.40
2019-04-28T22:20:12.287Z,9.40
2019-04-28T22:22:40.727Z,9.30
2019-04-28T22:25:13.367Z,9.30
2019-04-28T22:27:42.117Z,9.30
2019-04-28T22:30:11.088Z,9.30
2019-04-28T22:32:39.523Z,9.30
2019-04-28T22:35:08.293Z,9.30
2019-04-28T22:37:36.809Z,9.30
2019-04-28T22:40:07.080Z,9.30
2019-04-28T22:42:35.599Z,9.30
2019-04-28T22:45:06.804Z,9.30
2019-04-28T22:47:35.323Z,9.30
2019-04-28T22:50:07.169Z,9.20
2019-04-28T22:52:36.044Z,9.20
2019-04-28T22:55:17.424Z,9.20
2019-04-28T22:58:03.728Z,9.20
2019-04-28T23:00:40.778Z,9.20
2019-04-28T23:03:11.779Z,9.10
2019-04-28T23:05:40.764Z,9.10
2019-04-28T23:08:09.201Z,9.00
2019-04-28T23:10:37.711Z,9.00
2019-04-28T23:13:06.212Z,9.00
2019-04-28T23:15:34.732Z,9.00
2019-04-28T23:18:03.311Z,9.00
2019-04-28T23:20:33.539Z,9.00
2019-04-28T23:23:03.615Z,9.00
2019-04-28T23:25:33.231Z,9.00
2019-04-28T23:28:21.003Z,9.00
2019-04-28T23:30:49.447Z,8.90
2019-04-28T23:33:17.892Z,8.90
2019-04-28T23:35:46.336Z,8.90
2019-04-28T23:38:14.862Z,8.80
2019-04-28T23:40:47.884Z,8.80
2019-04-28T23:43:20.947Z,8.80
2019-04-28T23:45:49.375Z,8.80
2019-04-28T23:48:17.906Z,8.80
2019-04-28T23:51:04.151Z,8.80
2019-04-28T23:53:50.558Z,8.80
2019-04-28T23:56:19.012Z,8.80
2019-04-28T23:58:47.443Z,8.70
